< < Back
Terminal Aerodrome Forecast


Current Version              Previous Versions:   1  2  3  4  5  6  7  8  9  

Terminal Aerodrome Forecast

063
FTUS44 KBMX 271129
TAFBHM
TAF
KBHM 271129Z 2712/2812 09004KT P6SM FEW070
     FM271700 10007KT P6SM SCT050
     FM280100 08003KT P6SM SCT250=

Latest METAR

065
SAUS70 KWBC 271800 RRJ
MTRBHM
METAR KBHM 271753Z VRB05KT 10SM FEW060 33/19 A3009 RMK AO2 SLP178
T03280194 10339 20244 58012


USA.gov is the U.S. government's official web portal to all federal, state and local government web resources and services.